createdAt,value
2018-02-14T00:00:36.456Z,13.90
2018-02-14T00:03:04.062Z,11.27
2018-02-14T00:05:31.728Z,12.00
2018-02-14T00:07:59.305Z,10.47
2018-02-14T00:10:26.890Z,12.03
2018-02-14T00:12:54.482Z,13.20
2018-02-14T00:15:22.122Z,12.60
2018-02-14T00:17:49.715Z,9.97
2018-02-14T00:20:17.298Z,11.73
2018-02-14T00:22:44.866Z,12.33
2018-02-14T00:25:12.619Z,12.40
2018-02-14T00:27:40.187Z,12.47
2018-02-14T00:30:07.768Z,12.77
2018-02-14T00:32:35.469Z,12.60
2018-02-14T00:35:03.009Z,12.50
2018-02-14T00:37:30.605Z,12.20
2018-02-14T00:39:58.168Z,12.13
2018-02-14T00:42:25.737Z,14.50
2018-02-14T00:44:55.020Z,14.57
2018-02-14T00:47:23.043Z,15.97
2018-02-14T00:49:50.642Z,14.30
2018-02-14T00:52:18.229Z,14.90
2018-02-14T00:54:45.937Z,12.93
2018-02-14T00:57:13.620Z,13.63
2018-02-14T00:59:41.168Z,15.00
2018-02-14T01:02:08.776Z,15.20
2018-02-14T01:04:36.354Z,14.03
2018-02-14T01:07:04.018Z,17.57
2018-02-14T01:09:31.678Z,12.80
2018-02-14T01:11:59.261Z,13.70
2018-02-14T01:14:26.833Z,14.93
2018-02-14T01:16:54.423Z,13.53
2018-02-14T01:19:22.007Z,14.27
2018-02-14T01:21:50.523Z,12.73
2018-02-14T01:24:18.280Z,13.27
2018-02-14T01:26:45.855Z,14.70
2018-02-14T01:29:13.675Z,15.57
2018-02-14T01:31:41.315Z,15.30
2018-02-14T01:34:08.904Z,16.00
2018-02-14T01:36:36.462Z,16.00
2018-02-14T01:39:04.109Z,17.70
2018-02-14T01:41:31.706Z,15.97
2018-02-14T01:43:59.300Z,16.63
2018-02-14T01:46:26.877Z,15.23
2018-02-14T01:48:54.478Z,16.67
2018-02-14T01:51:22.055Z,17.90
2018-02-14T01:53:49.671Z,16.50
2018-02-14T01:56:17.260Z,16.00
2018-02-14T01:58:44.821Z,16.57
2018-02-14T02:01:12.379Z,17.30
2018-02-14T02:03:40.035Z,15.87
2018-02-14T02:06:07.610Z,17.80
2018-02-14T02:08:35.230Z,13.50
2018-02-14T02:11:02.855Z,15.37
2018-02-14T02:13:30.454Z,16.17
2018-02-14T02:15:58.023Z,17.50
2018-02-14T02:18:25.633Z,17.70
2018-02-14T02:20:53.215Z,19.37
2018-02-14T02:23:20.809Z,21.80
2018-02-14T02:25:48.403Z,30.90
2018-02-14T02:28:15.966Z,24.60
2018-02-14T02:30:43.569Z,18.93
2018-02-14T02:33:11.577Z,19.27
2018-02-14T02:35:39.127Z,20.67
2018-02-14T02:38:06.867Z,23.53
2018-02-14T02:40:34.522Z,20.77
2018-02-14T02:43:02.097Z,21.73
2018-02-14T02:45:29.693Z,30.13
2018-02-14T02:47:57.258Z,22.10
2018-02-14T02:50:24.822Z,24.37
2018-02-14T02:52:52.422Z,35.10
2018-02-14T02:55:25.882Z,25.33
2018-02-14T02:57:53.951Z,21.50
2018-02-14T03:00:21.519Z,23.40
2018-02-14T03:02:49.093Z,20.17
2018-02-14T03:05:16.683Z,18.93
2018-02-14T03:07:44.274Z,22.77
2018-02-14T03:10:11.855Z,20.10
2018-02-14T03:12:39.548Z,19.80
2018-02-14T03:15:07.156Z,18.70
2018-02-14T03:17:34.761Z,20.87
2018-02-14T03:20:02.548Z,21.03
2018-02-14T03:22:30.137Z,20.20
2018-02-14T03:24:57.822Z,21.30
2018-02-14T03:27:25.389Z,17.97
2018-02-14T03:29:53.002Z,17.60
2018-02-14T03:32:20.580Z,18.03
2018-02-14T03:34:48.179Z,20.13
2018-02-14T03:37:17.054Z,19.57
2018-02-14T03:39:44.604Z,19.97
2018-02-14T03:42:12.169Z,19.50
2018-02-14T03:44:39.767Z,21.00
2018-02-14T03:47:07.376Z,19.87
2018-02-14T03:49:34.975Z,20.70
2018-02-14T03:52:02.588Z,24.20
2018-02-14T03:54:30.186Z,22.00
2018-02-14T03:56:57.757Z,21.53
2018-02-14T03:59:25.570Z,21.17
2018-02-14T04:01:53.153Z,20.70
2018-02-14T04:04:20.735Z,20.07
2018-02-14T04:06:48.301Z,20.50
2018-02-14T04:09:15.880Z,24.20
2018-02-14T04:11:43.454Z,19.40
2018-02-14T04:14:11.025Z,22.10
2018-02-14T04:16:38.595Z,22.20
2018-02-14T04:19:06.214Z,21.47
2018-02-14T04:21:33.775Z,26.80
2018-02-14T04:24:01.378Z,21.60
2018-02-14T04:26:28.971Z,22.17
2018-02-14T04:28:56.570Z,21.17
2018-02-14T04:31:24.388Z,21.20
2018-02-14T04:33:51.954Z,21.77
2018-02-14T04:36:19.558Z,52.67
2018-02-14T04:38:47.267Z,37.47
2018-02-14T04:41:14.840Z,25.20
2018-02-14T04:43:44.208Z,24.13
2018-02-14T04:46:11.793Z,23.70
2018-02-14T04:48:39.522Z,22.60
2018-02-14T04:51:07.155Z,22.80
2018-02-14T04:53:34.810Z,21.13
2018-02-14T04:56:02.379Z,20.37
2018-02-14T04:58:29.958Z,23.87
2018-02-14T05:00:57.641Z,22.67
2018-02-14T05:03:25.234Z,21.80
2018-02-14T05:08:43.195Z,22.10
2018-02-14T05:11:11.435Z,20.17
2018-02-14T05:13:39.008Z,20.53
2018-02-14T05:16:06.578Z,18.87
2018-02-14T05:18:34.135Z,21.67
2018-02-14T05:21:01.733Z,24.40
2018-02-14T05:23:29.870Z,19.53
2018-02-14T05:25:57.456Z,20.70
2018-02-14T05:28:25.014Z,20.73
2018-02-14T05:30:52.640Z,22.40
2018-02-14T05:33:20.191Z,22.00
2018-02-14T05:35:47.769Z,19.57
2018-02-14T05:38:15.493Z,19.07
2018-02-14T05:40:43.060Z,18.40
2018-02-14T05:43:11.018Z,21.80
2018-02-14T05:45:38.918Z,19.43
2018-02-14T05:48:06.517Z,19.10
2018-02-14T05:50:34.081Z,19.97
2018-02-14T05:53:01.675Z,19.83
2018-02-14T05:55:29.264Z,21.00
2018-02-14T05:57:56.829Z,20.10
2018-02-14T06:00:24.400Z,19.53
2018-02-14T06:02:52.044Z,19.90
2018-02-14T06:05:19.854Z,18.87
2018-02-14T06:07:47.423Z,17.63
2018-02-14T06:10:14.992Z,18.97
2018-02-14T06:12:42.556Z,19.37
2018-02-14T06:15:10.566Z,21.30
2018-02-14T06:17:38.184Z,20.77
2018-02-14T06:20:05.769Z,18.67
2018-02-14T06:22:33.353Z,19.00
2018-02-14T06:25:00.961Z,18.87
2018-02-14T06:27:29.038Z,18.77
2018-02-14T06:29:56.643Z,18.10
2018-02-14T06:32:25.496Z,20.90
2018-02-14T06:34:53.074Z,25.00
2018-02-14T06:37:20.806Z,26.90
2018-02-14T06:39:48.418Z,19.80
2018-02-14T06:42:15.987Z,19.80
2018-02-14T06:44:43.568Z,17.00
2018-02-14T06:47:11.415Z,19.47
2018-02-14T06:49:38.990Z,21.20
2018-02-14T06:52:06.563Z,16.53
2018-02-14T06:54:34.148Z,18.30
2018-02-14T06:57:01.738Z,16.70
2018-02-14T06:59:29.332Z,17.50
2018-02-14T07:01:56.935Z,15.50
2018-02-14T07:04:25.213Z,14.23
2018-02-14T07:06:54.325Z,19.87
2018-02-14T07:09:22.355Z,18.53
2018-02-14T07:11:51.220Z,17.33
2018-02-14T07:14:18.775Z,16.53
2018-02-14T07:16:46.347Z,17.57
2018-02-14T07:19:14.162Z,22.13
2018-02-14T07:21:42.768Z,24.67
2018-02-14T07:24:10.392Z,22.87
2018-02-14T07:26:38.812Z,23.20
2018-02-14T07:29:06.590Z,26.57
2018-02-14T07:31:34.151Z,20.90
2018-02-14T07:34:02.114Z,17.53
2018-02-14T07:36:29.750Z,18.90
2018-02-14T07:38:58.788Z,18.00
2018-02-14T07:41:26.486Z,19.23
2018-02-14T07:43:55.102Z,17.47
2018-02-14T07:46:22.688Z,21.17
2018-02-14T07:48:50.256Z,22.43
2018-02-14T07:51:19.782Z,26.80
2018-02-14T07:53:47.540Z,25.87
2018-02-14T07:56:15.270Z,20.27
2018-02-14T07:58:42.826Z,26.00
2018-02-14T08:01:10.393Z,20.97
2018-02-14T08:03:37.964Z,18.67
2018-02-14T08:06:05.512Z,20.30
2018-02-14T08:08:33.097Z,18.33
2018-02-14T08:11:00.880Z,17.33
2018-02-14T08:13:28.494Z,18.70
2018-02-14T08:15:56.073Z,15.80
2018-02-14T08:18:24.426Z,16.73
2018-02-14T08:20:52.023Z,24.80
2018-02-14T08:23:19.604Z,25.80
2018-02-14T08:25:47.223Z,14.93
2018-02-14T08:28:14.788Z,18.20
2018-02-14T08:30:42.365Z,16.97
2018-02-14T08:33:10.553Z,15.43
2018-02-14T08:35:39.284Z,17.13
2018-02-14T08:38:06.843Z,13.87
2018-02-14T08:40:34.395Z,14.60
2018-02-14T08:43:01.997Z,15.53
2018-02-14T08:45:29.546Z,14.00
2018-02-14T08:47:57.122Z,12.53
2018-02-14T08:50:24.828Z,13.17
2018-02-14T08:52:52.376Z,13.37
2018-02-14T08:55:19.974Z,14.07
2018-02-14T08:57:47.534Z,14.00
2018-02-14T09:00:15.127Z,14.50
2018-02-14T09:02:42.705Z,14.90
2018-02-14T09:05:10.668Z,14.00
2018-02-14T09:07:38.252Z,14.13
2018-02-14T09:10:05.830Z,17.33
2018-02-14T09:12:33.376Z,14.50
2018-02-14T09:15:00.917Z,13.33
2018-02-14T09:17:28.799Z,15.63
2018-02-14T09:19:56.442Z,12.43
2018-02-14T09:22:24.702Z,12.90
2018-02-14T09:24:52.270Z,11.33
2018-02-14T09:27:19.839Z,12.00
2018-02-14T09:29:47.462Z,10.67
2018-02-14T09:32:15.098Z,10.63
2018-02-14T09:34:42.677Z,11.90
2018-02-14T09:37:10.969Z,12.93
2018-02-14T09:39:38.620Z,9.70
2018-02-14T09:42:06.181Z,11.00
2018-02-14T09:44:33.733Z,9.40
2018-02-14T09:47:01.335Z,11.13
2018-02-14T09:49:30.150Z,10.43
2018-02-14T09:51:57.728Z,10.00
2018-02-14T09:54:25.440Z,12.33
2018-02-14T09:56:53.057Z,10.00
2018-02-14T09:59:21.164Z,10.13
2018-02-14T10:01:48.900Z,9.50
2018-02-14T10:04:16.451Z,14.03
2018-02-14T10:06:44.005Z,9.20
2018-02-14T10:09:11.865Z,8.73
2018-02-14T10:11:39.835Z,8.40
2018-02-14T10:14:07.448Z,7.50
2018-02-14T10:16:35.135Z,8.53
2018-02-14T10:19:02.703Z,8.37
2018-02-14T10:21:30.718Z,11.37
2018-02-14T10:23:58.299Z,7.30
2018-02-14T10:26:26.341Z,7.43
2018-02-14T10:28:53.925Z,7.77
2018-02-14T10:31:21.542Z,7.90
2018-02-14T10:33:49.128Z,8.73
2018-02-14T10:36:16.703Z,6.70
2018-02-14T10:38:44.269Z,7.77
2018-02-14T10:41:12.164Z,8.10
2018-02-14T10:43:39.781Z,8.97
2018-02-14T10:46:07.336Z,11.57
2018-02-14T10:48:34.907Z,7.60
2018-02-14T10:51:02.537Z,6.87
2018-02-14T10:53:30.691Z,8.50
2018-02-14T10:55:58.264Z,8.47
2018-02-14T10:58:25.834Z,7.00
2018-02-14T11:00:58.957Z,8.07
2018-02-14T11:03:32.919Z,9.53
2018-02-14T11:06:06.613Z,8.33
2018-02-14T11:08:34.325Z,8.67
2018-02-14T11:11:01.893Z,8.30
2018-02-14T11:13:29.474Z,7.90
2018-02-14T11:15:57.451Z,9.43
2018-02-14T11:18:25.090Z,7.73
2018-02-14T11:20:52.709Z,7.90
2018-02-14T11:23:20.308Z,8.70
2018-02-14T11:25:47.861Z,9.03
2018-02-14T11:28:15.439Z,8.20
2018-02-14T11:30:43.967Z,8.50
2018-02-14T11:33:13.627Z,9.43
2018-02-14T11:35:41.238Z,8.67
2018-02-14T11:38:08.805Z,7.30
2018-02-14T11:40:36.370Z,10.87
2018-02-14T11:43:03.958Z,11.23
2018-02-14T11:45:31.527Z,10.80
2018-02-14T11:47:59.166Z,9.00
2018-02-14T11:50:26.787Z,8.53
2018-02-14T11:52:54.383Z,9.27
2018-02-14T11:55:21.946Z,9.43
2018-02-14T11:57:49.572Z,9.67
2018-02-14T12:00:17.160Z,9.90
2018-02-14T12:02:44.708Z,10.10
2018-02-14T12:05:12.738Z,10.40
2018-02-14T12:07:40.377Z,10.13
2018-02-14T12:10:07.949Z,10.47
2018-02-14T12:12:35.565Z,9.03
2018-02-14T12:15:03.218Z,11.10
2018-02-14T12:17:30.794Z,12.30
2018-02-14T12:19:58.387Z,10.70
2018-02-14T12:22:26.400Z,12.67
2018-02-14T12:24:53.959Z,12.73
2018-02-14T12:27:21.681Z,11.63
2018-02-14T12:29:49.269Z,11.57
2018-02-14T12:32:16.861Z,11.80
2018-02-14T12:34:44.444Z,10.93
2018-02-14T12:37:12.808Z,11.10
2018-02-14T12:39:40.383Z,12.73
2018-02-14T12:42:07.999Z,9.97
2018-02-14T12:44:35.576Z,10.20
2018-02-14T12:47:03.200Z,11.50
2018-02-14T12:49:30.796Z,10.20
2018-02-14T12:51:58.399Z,11.23
2018-02-14T12:54:25.986Z,10.70
2018-02-14T12:56:53.551Z,10.73
2018-02-14T12:59:21.152Z,12.90
2018-02-14T13:01:48.780Z,11.50
2018-02-14T13:04:16.369Z,11.73
2018-02-14T13:06:43.977Z,10.73
2018-02-14T13:09:11.945Z,10.30
2018-02-14T13:11:39.697Z,10.80
2018-02-14T13:14:07.295Z,10.47
2018-02-14T13:16:34.857Z,10.20
2018-02-14T13:19:02.459Z,10.90
2018-02-14T13:21:30.570Z,9.73
2018-02-14T13:23:58.169Z,11.40
2018-02-14T13:26:25.769Z,10.50
2018-02-14T13:28:53.399Z,10.43
2018-02-14T13:31:21.000Z,10.63
2018-02-14T13:33:48.581Z,10.50
2018-02-14T13:36:16.154Z,9.33
2018-02-14T13:38:43.733Z,11.63
2018-02-14T13:41:11.739Z,11.60
2018-02-14T13:43:39.324Z,9.30
2018-02-14T13:46:06.909Z,9.37
2018-02-14T13:48:34.484Z,10.87
2018-02-14T13:51:02.059Z,9.90
2018-02-14T13:53:29.674Z,10.30
2018-02-14T13:55:58.458Z,11.70
2018-02-14T13:58:26.117Z,9.87
2018-02-14T14:00:53.712Z,10.40
2018-02-14T14:03:21.278Z,9.87
2018-02-14T14:05:48.862Z,11.03
2018-02-14T14:08:16.483Z,12.57
2018-02-14T14:10:44.052Z,10.20
2018-02-14T14:13:12.086Z,10.70
2018-02-14T14:15:39.676Z,13.07
2018-02-14T14:18:07.344Z,12.50
2018-02-14T14:20:34.957Z,14.20
2018-02-14T14:23:02.563Z,11.37
2018-02-14T14:25:30.136Z,10.13
2018-02-14T14:27:57.730Z,12.23
2018-02-14T14:30:25.389Z,9.87
2018-02-14T14:32:53.861Z,12.80
2018-02-14T14:35:21.492Z,10.10
2018-02-14T14:37:49.105Z,12.53
2018-02-14T14:40:16.706Z,11.93
2018-02-14T14:42:44.317Z,11.50
2018-02-14T14:45:12.225Z,12.93
2018-02-14T14:47:39.844Z,12.70
2018-02-14T14:50:07.444Z,12.07
2018-02-14T14:52:35.019Z,10.33
2018-02-14T14:55:02.638Z,12.33
2018-02-14T14:57:30.218Z,12.33
2018-02-14T14:59:57.782Z,13.93
2018-02-14T15:02:25.378Z,13.27
2018-02-14T15:04:53.351Z,12.50
2018-02-14T15:07:20.986Z,12.37
2018-02-14T15:09:48.608Z,15.90
2018-02-14T15:12:16.232Z,14.17
2018-02-14T15:14:43.831Z,14.90
2018-02-14T15:17:12.724Z,14.10
2018-02-14T15:19:40.936Z,14.20
2018-02-14T15:22:08.627Z,15.17
2018-02-14T15:24:36.208Z,16.40
2018-02-14T15:27:04.273Z,14.93
2018-02-14T15:29:31.832Z,16.40
2018-02-14T15:31:59.416Z,18.63
2018-02-14T15:34:27.314Z,15.00
2018-02-14T15:36:54.902Z,15.87
2018-02-14T15:39:23.375Z,14.93
2018-02-14T15:41:51.030Z,18.20
2018-02-14T15:44:18.627Z,19.37
2018-02-14T15:46:46.230Z,16.80
2018-02-14T15:49:14.862Z,18.97
2018-02-14T15:51:43.045Z,18.70
2018-02-14T15:54:10.609Z,21.60
2018-02-14T15:56:38.233Z,20.63
2018-02-14T15:59:05.854Z,25.80
2018-02-14T16:01:33.450Z,23.23
2018-02-14T16:04:01.044Z,23.23
2018-02-14T16:06:28.638Z,25.17
2018-02-14T16:08:56.316Z,23.43
2018-02-14T16:11:24.035Z,25.63
2018-02-14T16:13:51.625Z,20.70
2018-02-14T16:16:19.183Z,22.37
2018-02-14T16:18:46.765Z,18.83
2018-02-14T16:21:14.577Z,20.60
2018-02-14T16:23:42.249Z,19.57
2018-02-14T16:26:09.866Z,18.93
2018-02-14T16:28:37.449Z,18.80
2018-02-14T16:31:05.089Z,24.87
2018-02-14T16:33:34.442Z,20.40
2018-02-14T16:36:02.161Z,24.90
2018-02-14T16:38:31.722Z,22.30
2018-02-14T16:40:59.353Z,24.20
2018-02-14T16:43:40.382Z,21.73
2018-02-14T16:46:07.988Z,23.27
2018-02-14T16:48:35.571Z,20.60
2018-02-14T16:51:03.189Z,24.00
2018-02-14T16:53:31.531Z,31.07
2018-02-14T16:55:59.161Z,36.17
2018-02-14T16:58:26.756Z,21.40
2018-02-14T17:00:54.316Z,19.83
2018-02-14T17:03:22.422Z,18.97
2018-02-14T17:05:50.025Z,21.17
2018-02-14T17:08:19.945Z,19.53
2018-02-14T17:10:47.557Z,18.70
2018-02-14T17:13:15.523Z,18.73
2018-02-14T17:15:43.130Z,18.70
2018-02-14T17:18:10.729Z,19.50
2018-02-14T17:20:38.311Z,17.60
2018-02-14T17:23:06.226Z,17.23
2018-02-14T17:25:33.848Z,17.70
2018-02-14T17:28:01.437Z,18.93
2018-02-14T17:30:29.073Z,22.10
2018-02-14T17:32:56.800Z,19.30
2018-02-14T17:35:24.518Z,17.80
2018-02-14T17:37:52.255Z,17.57
2018-02-14T17:40:19.964Z,16.00
2018-02-14T17:42:47.543Z,17.57
2018-02-14T17:45:15.366Z,18.40
2018-02-14T17:47:43.036Z,17.50
2018-02-14T17:50:10.765Z,19.63
2018-02-14T17:52:38.322Z,26.70
2018-02-14T17:55:06.436Z,24.93
2018-02-14T17:57:34.117Z,30.23
2018-02-14T18:00:01.713Z,20.40
2018-02-14T18:02:29.389Z,20.80
2018-02-14T18:04:58.193Z,18.07
2018-02-14T18:07:26.035Z,20.93
2018-02-14T18:09:53.620Z,23.30
2018-02-14T18:12:21.343Z,25.13
2018-02-14T18:14:48.953Z,25.50
2018-02-14T18:17:16.744Z,21.60
2018-02-14T18:19:44.409Z,24.57
2018-02-14T18:22:12.032Z,20.40
2018-02-14T18:24:39.621Z,16.67
2018-02-14T18:27:12.808Z,18.97
2018-02-14T18:29:40.377Z,18.63
2018-02-14T18:32:07.989Z,20.57
2018-02-14T18:34:35.595Z,17.67
2018-02-14T18:37:03.144Z,17.23
2018-02-14T18:39:30.901Z,17.93
2018-02-14T18:41:58.486Z,18.53
2018-02-14T18:44:26.089Z,18.67
2018-02-14T18:46:53.672Z,18.53
2018-02-14T18:49:22.378Z,16.73
2018-02-14T18:51:50.261Z,18.43
2018-02-14T18:54:17.850Z,18.20
2018-02-14T18:56:45.424Z,16.83
2018-02-14T18:59:13.442Z,19.80
2018-02-14T19:01:41.438Z,20.93
2018-02-14T19:04:09.241Z,20.07
2018-02-14T19:06:36.842Z,16.40
2018-02-14T19:09:05.029Z,18.90
2018-02-14T19:11:35.176Z,19.50
2018-02-14T19:14:02.800Z,19.53
2018-02-14T19:16:32.133Z,17.47
2018-02-14T19:19:00.407Z,20.73
2018-02-14T19:21:28.502Z,19.90
2018-02-14T19:23:56.201Z,25.10
2018-02-14T19:26:23.905Z,61.90
2018-02-14T19:28:52.676Z,24.10
2018-02-14T19:31:20.570Z,23.07
2018-02-14T19:33:48.385Z,28.43
2018-02-14T19:36:16.086Z,23.23
2018-02-14T19:38:43.667Z,20.90
2018-02-14T19:41:11.693Z,22.20
2018-02-14T19:43:40.371Z,24.47
2018-02-14T19:46:07.964Z,22.70
2018-02-14T19:48:35.540Z,19.87
2018-02-14T19:51:05.830Z,19.70
2018-02-14T19:53:33.482Z,20.70
2018-02-14T19:56:01.068Z,19.47
2018-02-14T19:58:28.748Z,18.13
2018-02-14T20:00:56.401Z,19.80
2018-02-14T20:03:24.823Z,19.40
2018-02-14T20:05:53.622Z,19.87
2018-02-14T20:08:23.003Z,19.70
2018-02-14T20:10:51.094Z,17.93
2018-02-14T20:13:19.429Z,20.13
2018-02-14T20:15:47.825Z,20.17
2018-02-14T20:18:15.653Z,19.37
2018-02-14T20:20:43.229Z,20.73
2018-02-14T20:23:12.261Z,21.80
2018-02-14T20:25:40.951Z,25.20
2018-02-14T20:28:08.589Z,22.57
2018-02-14T20:30:36.173Z,19.07
2018-02-14T20:33:03.825Z,21.13
2018-02-14T20:35:33.707Z,18.90
2018-02-14T20:38:01.369Z,20.63
2018-02-14T20:40:29.329Z,19.53
2018-02-14T20:42:57.030Z,20.87
2018-02-14T20:45:24.739Z,20.50
2018-02-14T20:47:52.354Z,22.40
2018-02-14T20:50:19.993Z,22.13
2018-02-14T20:52:47.651Z,21.37
2018-02-14T20:55:15.819Z,21.77
2018-02-14T20:57:43.811Z,20.57
2018-02-14T21:00:11.428Z,21.10
2018-02-14T21:02:39.026Z,20.00
2018-02-14T21:05:07.048Z,19.40
2018-02-14T21:07:35.562Z,20.37
2018-02-14T21:10:03.217Z,19.27
2018-02-14T21:12:30.781Z,20.90
2018-02-14T21:14:58.350Z,18.77
2018-02-14T21:20:41.729Z,18.83
2018-02-14T21:23:09.677Z,19.10
2018-02-14T21:25:37.664Z,19.17
2018-02-14T21:28:05.660Z,18.13
2018-02-14T21:30:33.232Z,18.30
2018-02-14T21:33:00.896Z,18.83
2018-02-14T21:35:28.792Z,19.50
2018-02-14T21:37:56.460Z,24.03
2018-02-14T21:40:25.271Z,21.97
2018-02-14T21:42:54.633Z,23.57
2018-02-14T21:45:22.565Z,21.17
2018-02-14T21:47:50.200Z,20.33
2018-02-14T21:50:17.975Z,20.93
2018-02-14T21:52:45.583Z,20.10
2018-02-14T21:55:13.303Z,21.03
2018-02-14T21:57:41.072Z,20.23
2018-02-14T22:00:08.700Z,18.93
2018-02-14T22:02:36.286Z,17.70
2018-02-14T22:05:03.900Z,19.60
2018-02-14T22:07:31.598Z,20.90
2018-02-14T22:09:59.197Z,19.87
2018-02-14T22:12:26.784Z,28.23
2018-02-14T22:14:54.429Z,26.50
2018-02-14T22:17:22.044Z,22.40
2018-02-14T22:19:49.672Z,22.17
2018-02-14T22:22:17.246Z,23.70
2018-02-14T22:24:44.872Z,23.77
2018-02-14T22:27:12.781Z,23.63
2018-02-14T22:29:40.501Z,21.60
2018-02-14T22:32:08.180Z,20.70
2018-02-14T22:34:35.768Z,20.63
2018-02-14T22:37:04.111Z,21.20
2018-02-14T22:39:31.943Z,18.50
2018-02-14T22:41:59.536Z,21.60
2018-02-14T22:44:27.129Z,20.80
2018-02-14T22:46:54.699Z,18.93
2018-02-14T22:49:22.317Z,21.50
2018-02-14T22:51:49.913Z,20.27
2018-02-14T22:54:17.722Z,19.20
2018-02-14T22:56:45.286Z,17.77
2018-02-14T22:59:13.352Z,19.07
2018-02-14T23:01:42.021Z,19.87
2018-02-14T23:04:12.923Z,18.37
2018-02-14T23:06:43.190Z,19.30
2018-02-14T23:09:12.101Z,18.33
2018-02-14T23:11:41.725Z,18.93
2018-02-14T23:14:10.241Z,19.20
2018-02-14T23:16:37.866Z,18.33
2018-02-14T23:19:05.567Z,16.50
2018-02-14T23:21:34.335Z,20.80
2018-02-14T23:24:01.992Z,17.87
2018-02-14T23:26:31.944Z,17.97
2018-02-14T23:28:59.867Z,18.83
2018-02-14T23:31:27.441Z,18.27
2018-02-14T23:33:55.104Z,18.87
2018-02-14T23:36:22.883Z,17.60
2018-02-14T23:38:50.664Z,18.33
2018-02-14T23:41:21.214Z,17.53
2018-02-14T23:43:49.129Z,17.97
2018-02-14T23:46:16.871Z,17.93
2018-02-14T23:48:44.663Z,16.33
2018-02-14T23:51:15.159Z,18.20
2018-02-14T23:53:42.901Z,20.07
2018-02-14T23:56:10.758Z,16.50
2018-02-14T23:58:38.371Z,15.80
